createdAt,value
2023-11-24T05:35:28.836Z,98992.72
2023-11-24T05:38:31.533Z,98992.72
2023-11-24T05:41:34.025Z,98987.84
2023-11-24T05:44:36.534Z,98975.66
2023-11-24T05:47:39.407Z,98963.66
2023-11-24T05:50:41.922Z,98966.94
2023-11-24T05:53:44.417Z,98959.97
2023-11-24T05:56:47.024Z,98953.94
2023-11-24T05:59:50.771Z,98954.97
2023-11-24T06:02:53.344Z,98946.25
2023-11-24T06:05:56.141Z,98932.44
2023-11-24T06:08:58.712Z,98938.31
2023-11-24T06:12:03.054Z,98948.59
2023-11-24T06:15:06.899Z,98951.06
2023-11-24T06:18:09.474Z,98947.59
2023-11-24T06:21:13.602Z,98952.72
2023-11-24T06:24:16.555Z,98941.44
2023-11-24T06:27:19.166Z,98942.09
2023-11-24T06:30:21.662Z,98935.75
2023-11-24T06:33:25.591Z,98930.72
2023-11-24T06:36:28.209Z,98936.75
2023-11-24T06:39:30.845Z,98934.91
2023-11-24T06:42:33.526Z,98927.16
2023-11-24T06:45:36.150Z,98926.31
2023-11-24T06:48:40.584Z,98921.31
2023-11-24T06:51:43.145Z,98911.66
2023-11-24T06:54:46.139Z,98920.91
2023-11-24T06:57:50.000Z,98907.50
2023-11-24T07:00:52.826Z,98913.69
2023-11-24T07:03:55.757Z,98917.13
2023-11-24T07:06:59.529Z,98916.41
2023-11-24T07:10:03.774Z,98913.22
2023-11-24T07:13:08.562Z,98913.34
2023-11-24T07:16:11.281Z,98911.59
2023-11-24T07:19:13.921Z,98926.25
2023-11-24T07:22:17.034Z,98931.00
2023-11-24T07:25:19.544Z,98922.22
2023-11-24T07:28:22.121Z,98913.56
2023-11-24T07:31:25.932Z,98912.22
2023-11-24T07:34:28.587Z,98913.06
2023-11-24T07:37:31.080Z,98912.28
2023-11-24T07:40:33.842Z,98930.28
2023-11-24T07:43:36.913Z,98946.66
2023-11-24T07:46:39.675Z,98959.56
2023-11-24T07:49:42.630Z,98963.75
2023-11-24T07:52:45.393Z,98960.22
2023-11-24T07:55:48.343Z,98964.63
2023-11-24T07:58:51.021Z,98965.44
2023-11-24T08:01:53.700Z,98967.16
2023-11-24T08:04:59.890Z,98963.59
2023-11-24T08:08:02.589Z,98948.59
2023-11-24T08:11:06.184Z,98947.84
2023-11-24T08:14:08.770Z,98952.88
2023-11-24T08:17:11.306Z,98952.75
2023-11-24T08:20:14.794Z,98925.31
2023-11-24T08:23:18.591Z,98927.84
2023-11-24T08:26:22.510Z,98926.00
2023-11-24T08:29:25.658Z,98936.03
2023-11-24T08:32:28.181Z,98933.25
2023-11-24T08:35:30.899Z,98930.31
2023-11-24T08:38:33.400Z,98931.94
2023-11-24T08:41:40.546Z,98935.09
2023-11-24T08:44:43.528Z,98944.44
2023-11-24T08:47:47.984Z,98935.50
2023-11-24T08:50:50.682Z,98938.06
2023-11-24T08:53:53.256Z,98931.75
2023-11-24T08:56:55.763Z,98929.78
2023-11-24T08:59:58.992Z,98940.56
2023-11-24T09:03:03.586Z,98930.22
2023-11-24T09:06:07.376Z,98927.13
2023-11-24T09:09:10.294Z,98917.22
2023-11-24T09:12:13.988Z,98914.44
2023-11-24T09:15:16.814Z,98906.66
2023-11-24T09:18:20.397Z,98895.22
2023-11-24T09:21:22.989Z,98885.53
2023-11-24T09:24:25.592Z,98874.19
2023-11-24T09:27:28.092Z,98846.78
2023-11-24T09:30:31.143Z,98838.06
2023-11-24T09:33:33.640Z,98837.97
2023-11-24T09:36:36.264Z,98844.88
2023-11-24T09:39:38.824Z,98839.50
2023-11-24T09:42:41.866Z,98814.91
2023-11-24T09:45:44.372Z,98821.41
2023-11-24T09:48:47.496Z,98815.00
2023-11-24T09:51:50.168Z,98818.97
2023-11-24T09:54:54.815Z,98799.28
2023-11-24T09:57:58.701Z,98796.03
2023-11-24T10:01:14.986Z,98813.19
2023-11-24T10:04:17.563Z,98800.00
2023-11-24T10:07:23.464Z,98785.84
2023-11-24T10:10:27.455Z,98786.22
2023-11-24T10:13:30.100Z,98769.66
2023-11-24T10:16:32.942Z,98765.31
2023-11-24T10:19:37.167Z,98745.50
2023-11-24T10:22:40.221Z,98751.97
2023-11-24T10:25:42.766Z,98751.09
2023-11-24T10:28:46.127Z,98735.19
2023-11-24T10:31:48.679Z,98727.94
2023-11-24T10:34:52.635Z,98727.97
2023-11-24T10:37:55.555Z,98737.44
2023-11-24T10:41:00.782Z,98725.56
2023-11-24T10:44:05.292Z,98714.78
2023-11-24T10:47:09.846Z,98695.41
2023-11-24T10:50:14.549Z,98696.09
2023-11-24T10:53:33.244Z,98676.09
2023-11-24T10:56:38.782Z,98719.69
2023-11-24T10:59:42.841Z,98720.84
2023-11-24T11:02:47.909Z,98717.62
2023-11-24T11:06:18.677Z,98695.34
2023-11-24T11:09:30.748Z,98692.59
2023-11-24T11:12:40.760Z,98682.72
2023-11-24T11:15:43.473Z,98666.50
2023-11-24T11:18:46.188Z,98665.03
2023-11-24T11:21:54.193Z,98655.34
2023-11-24T11:25:16.115Z,98658.16
2023-11-24T11:28:18.963Z,98676.69
2023-11-24T11:31:35.607Z,98679.44
2023-11-24T11:34:38.254Z,98691.69
2023-11-24T11:37:42.562Z,98696.91
2023-11-24T11:40:45.801Z,98695.25
2023-11-24T11:43:55.446Z,98690.53
2023-11-24T11:47:24.184Z,98696.91
2023-11-24T11:50:26.932Z,98682.50
2023-11-24T11:53:31.153Z,98677.53
2023-11-24T11:56:34.378Z,98663.69
2023-11-24T11:59:37.777Z,98678.28
2023-11-24T12:02:40.707Z,98681.03
2023-11-24T12:05:43.961Z,98677.75
2023-11-24T12:08:46.476Z,98688.31
2023-11-24T12:11:48.934Z,98693.50
2023-11-24T12:14:55.778Z,98685.38
2023-11-24T12:17:58.884Z,98667.25
2023-11-24T12:21:01.739Z,98667.16
2023-11-24T12:24:15.059Z,98668.88
2023-11-24T12:27:19.703Z,98659.56
2023-11-24T12:30:24.113Z,98655.34
2023-11-24T12:33:26.711Z,98650.88
2023-11-24T12:36:29.301Z,98654.56
2023-11-24T12:39:32.146Z,98667.44
2023-11-24T12:42:34.732Z,98672.63
2023-11-24T12:45:37.251Z,98659.41
2023-11-24T12:48:41.463Z,98658.69
2023-11-24T12:51:47.910Z,98659.72
2023-11-24T12:54:51.670Z,98639.97
2023-11-24T12:57:55.206Z,98632.09
2023-11-24T13:00:58.582Z,98644.44
2023-11-24T13:04:01.461Z,98651.53
2023-11-24T13:07:07.525Z,98647.88
2023-11-24T13:10:14.625Z,98636.66
2023-11-24T13:13:17.712Z,98649.56
2023-11-24T13:16:20.629Z,98647.03
2023-11-24T13:19:24.395Z,98638.66
2023-11-24T13:22:27.310Z,98627.28
2023-11-24T13:25:30.750Z,98629.94
2023-11-24T13:28:33.568Z,98619.50
2023-11-24T13:31:42.510Z,98613.50
2023-11-24T13:34:45.597Z,98611.28
2023-11-24T13:37:51.600Z,98629.28
2023-11-24T13:40:56.062Z,98634.38
2023-11-24T13:43:59.233Z,98621.66
2023-11-24T13:47:04.470Z,98614.75
2023-11-24T13:50:08.744Z,98609.41
2023-11-24T13:53:13.256Z,98617.34
2023-11-24T13:56:16.067Z,98628.53
2023-11-24T13:59:18.600Z,98618.38
2023-11-24T14:02:21.497Z,98613.00
2023-11-24T14:05:24.266Z,98615.34
2023-11-24T14:08:26.849Z,98600.56
2023-11-24T14:11:31.944Z,98595.47
2023-11-24T14:14:34.602Z,98587.88
2023-11-24T14:17:37.303Z,98582.41
2023-11-24T14:20:41.430Z,98563.22
2023-11-24T14:23:44.042Z,98543.78
2023-11-24T14:26:46.831Z,98554.88
2023-11-24T14:29:49.315Z,98551.69
2023-11-24T14:32:52.679Z,98552.41
2023-11-24T14:35:56.414Z,98550.72
2023-11-24T14:38:59.079Z,98549.09
2023-11-24T14:42:02.749Z,98556.28
2023-11-24T14:45:05.826Z,98559.03
2023-11-24T14:48:10.117Z,98583.16
2023-11-24T14:51:14.101Z,98578.16
2023-11-24T14:54:17.608Z,98582.38
2023-11-24T14:57:20.270Z,98566.75
2023-11-24T15:00:35.074Z,98557.66
2023-11-24T15:03:38.105Z,98564.69
2023-11-24T15:06:41.619Z,98564.84
2023-11-24T15:09:46.688Z,98567.59
2023-11-24T15:12:49.426Z,98572.72
2023-11-24T15:15:52.025Z,98569.41
2023-11-24T15:18:54.553Z,98558.22
2023-11-24T15:21:57.496Z,98528.09
2023-11-24T15:25:00.383Z,98505.56
2023-11-24T15:28:06.041Z,98504.25
2023-11-24T15:31:08.594Z,98516.75
2023-11-24T15:34:11.212Z,98532.16
2023-11-24T15:37:13.759Z,98528.56
2023-11-24T15:40:22.210Z,98540.75
2023-11-24T15:43:25.451Z,98532.13
2023-11-24T15:46:34.442Z,98519.91
2023-11-24T15:49:40.177Z,98528.59
2023-11-24T15:52:45.363Z,98544.28
2023-11-24T15:55:50.715Z,98552.63
2023-11-24T15:58:56.529Z,98564.22
2023-11-24T16:02:01.760Z,98555.63
2023-11-24T16:05:07.731Z,98546.72
2023-11-24T16:08:11.948Z,98553.19
